createdAt,value
2023-05-21T00:00:26.008Z,3.53
2023-05-21T00:01:48.515Z,3.40
2023-05-21T00:03:14.206Z,3.43
2023-05-21T00:04:36.446Z,3.73
2023-05-21T00:06:01.485Z,3.00
2023-05-21T00:07:23.854Z,3.37
2023-05-21T00:08:46.141Z,3.47
2023-05-21T00:10:08.787Z,3.50
2023-05-21T00:11:31.464Z,4.07
2023-05-21T00:12:53.557Z,3.97
2023-05-21T00:14:15.868Z,3.90
2023-05-21T00:15:38.423Z,4.40
2023-05-21T00:17:00.817Z,3.63
2023-05-21T00:18:25.315Z,3.03
2023-05-21T00:19:48.039Z,3.40
2023-05-21T00:21:10.164Z,3.73
2023-05-21T00:22:33.470Z,3.80
2023-05-21T00:23:56.608Z,3.90
2023-05-21T00:25:18.867Z,3.40
2023-05-21T00:26:41.012Z,3.70
2023-05-21T00:28:03.287Z,3.73
2023-05-21T00:29:27.781Z,3.50
2023-05-21T00:30:50.105Z,4.40
2023-05-21T00:32:12.321Z,3.70
2023-05-21T00:33:35.114Z,3.10
2023-05-21T00:34:58.345Z,3.97
2023-05-21T00:36:24.098Z,3.20
2023-05-21T00:37:47.728Z,3.50
2023-05-21T00:39:09.990Z,3.70
2023-05-21T00:40:32.291Z,3.70
2023-05-21T00:41:56.817Z,3.37
2023-05-21T00:43:19.053Z,3.47
2023-05-21T00:46:28.454Z,3.67
2023-05-21T00:47:54.400Z,3.90
2023-05-21T00:49:17.059Z,3.70
2023-05-21T00:50:40.704Z,4.40
2023-05-21T00:52:02.865Z,4.23
2023-05-21T00:53:25.668Z,4.63
2023-05-21T00:54:51.858Z,4.30
2023-05-21T00:56:14.062Z,4.13
2023-05-21T00:57:39.338Z,3.57
2023-05-21T00:59:05.511Z,3.57
2023-05-21T01:00:28.158Z,3.60
2023-05-21T01:01:56.392Z,4.87
2023-05-21T01:03:19.185Z,4.10
2023-05-21T01:04:41.499Z,4.30
2023-05-21T01:06:06.837Z,3.37
2023-05-21T01:07:28.946Z,3.60
2023-05-21T01:08:51.109Z,3.70
2023-05-21T01:10:13.338Z,3.90
2023-05-21T01:11:40.743Z,3.13
2023-05-21T01:13:03.125Z,4.27
2023-05-21T01:14:25.963Z,4.03
2023-05-21T01:15:49.266Z,3.40
2023-05-21T01:17:13.021Z,3.87
2023-05-21T01:18:37.774Z,3.83
2023-05-21T01:20:01.805Z,3.70
2023-05-21T01:21:25.904Z,3.80
2023-05-21T01:22:55.849Z,4.10
2023-05-21T01:24:18.689Z,3.97
2023-05-21T01:25:42.320Z,3.40
2023-05-21T01:27:07.524Z,3.37
2023-05-21T01:28:29.976Z,3.37
2023-05-21T01:29:52.237Z,3.90
2023-05-21T01:31:31.297Z,4.10
2023-05-21T01:33:04.263Z,4.70
2023-05-21T01:34:41.574Z,4.60
2023-05-21T01:36:11.890Z,3.60
2023-05-21T01:37:48.954Z,4.60
2023-05-21T01:39:18.451Z,4.47
2023-05-21T01:40:53.372Z,3.77
2023-05-21T01:42:18.284Z,4.70
2023-05-21T01:43:43.977Z,4.30
2023-05-21T01:45:07.974Z,4.17
2023-05-21T01:46:33.351Z,4.57
2023-05-21T01:47:56.415Z,3.83
2023-05-21T01:49:20.052Z,4.77
2023-05-21T01:50:44.883Z,3.93
2023-05-21T01:52:07.316Z,4.63
2023-05-21T01:53:29.525Z,4.13
2023-05-21T01:54:51.642Z,4.07
2023-05-21T01:56:15.864Z,4.30
2023-05-21T01:57:37.967Z,4.37
2023-05-21T01:59:00.327Z,3.80
2023-05-21T02:00:24.192Z,5.63
2023-05-21T02:01:46.481Z,4.70
2023-05-21T02:03:09.085Z,4.83
2023-05-21T02:04:31.600Z,4.57
2023-05-21T02:05:55.523Z,5.10
2023-05-21T02:07:18.359Z,4.50
2023-05-21T02:08:40.521Z,4.37
2023-05-21T02:10:02.662Z,4.40
2023-05-21T02:11:24.803Z,3.97
2023-05-21T02:12:47.058Z,5.20
2023-05-21T02:14:10.505Z,4.80
2023-05-21T02:15:34.842Z,4.77
2023-05-21T02:16:57.964Z,4.40
2023-05-21T02:18:21.395Z,4.50
2023-05-21T02:19:44.936Z,4.00
2023-05-21T02:21:07.077Z,4.50
2023-05-21T02:22:29.271Z,4.93
2023-05-21T02:23:51.396Z,4.67
2023-05-21T02:25:19.647Z,5.47
2023-05-21T02:26:42.222Z,4.73
2023-05-21T02:28:04.592Z,5.13
2023-05-21T02:29:26.777Z,4.80
2023-05-21T02:30:49.485Z,5.00
2023-05-21T02:32:11.743Z,6.03
2023-05-21T02:33:33.866Z,5.10
2023-05-21T02:34:55.987Z,4.60
2023-05-21T02:36:18.861Z,5.37
2023-05-21T02:37:41.140Z,5.30
2023-05-21T02:39:03.340Z,4.53
2023-05-21T02:40:25.475Z,5.20
2023-05-21T02:41:47.550Z,4.77
2023-05-21T02:43:09.638Z,5.23
2023-05-21T02:44:31.740Z,5.30
2023-05-21T02:45:53.854Z,5.50
2023-05-21T02:47:16.080Z,4.87
2023-05-21T02:48:38.151Z,5.20
2023-05-21T02:50:01.525Z,4.80
2023-05-21T02:51:23.657Z,5.20
2023-05-21T02:52:45.871Z,5.20
2023-05-21T02:54:08.068Z,5.43
2023-05-21T02:55:30.168Z,5.67
2023-05-21T02:56:52.229Z,5.93
2023-05-21T02:58:14.971Z,6.10
2023-05-21T02:59:37.258Z,5.60
2023-05-21T03:00:59.402Z,5.53
2023-05-21T03:02:21.573Z,5.10
2023-05-21T03:03:43.826Z,5.30
2023-05-21T03:05:06.551Z,5.40
2023-05-21T03:06:28.616Z,5.80
2023-05-21T03:07:51.034Z,6.23
2023-05-21T03:09:13.296Z,5.77
2023-05-21T03:10:35.522Z,5.00
2023-05-21T03:11:57.634Z,6.17
2023-05-21T03:13:20.159Z,6.00
2023-05-21T03:14:44.098Z,6.20
2023-05-21T03:16:06.360Z,6.27
2023-05-21T03:17:28.462Z,6.27
2023-05-21T03:18:50.622Z,6.10
2023-05-21T03:20:18.709Z,6.70
2023-05-21T03:21:41.774Z,6.53
2023-05-21T03:23:04.375Z,6.77
2023-05-21T03:24:26.510Z,6.90
2023-05-21T03:25:48.969Z,6.10
2023-05-21T03:27:11.307Z,5.90
2023-05-21T03:28:33.452Z,6.60
2023-05-21T03:29:55.816Z,6.03
2023-05-21T03:31:17.950Z,5.83
2023-05-21T03:32:41.407Z,6.33
2023-05-21T03:34:03.643Z,6.13
2023-05-21T03:35:26.121Z,6.73
2023-05-21T03:36:48.295Z,7.03
2023-05-21T03:38:10.384Z,5.93
2023-05-21T03:39:32.546Z,6.20
2023-05-21T03:40:54.754Z,6.57
2023-05-21T03:42:16.976Z,6.70
2023-05-21T03:43:39.121Z,5.73
2023-05-21T03:45:01.355Z,6.87
2023-05-21T03:46:23.558Z,6.33
2023-05-21T03:47:45.744Z,6.90
2023-05-21T03:49:07.887Z,7.03
2023-05-21T03:50:30.012Z,6.13
2023-05-21T03:51:52.220Z,6.53
2023-05-21T03:53:14.755Z,6.93
2023-05-21T03:54:37.165Z,6.60
2023-05-21T03:55:59.249Z,6.70
2023-05-21T03:57:21.423Z,6.43
2023-05-21T03:58:43.813Z,6.90
2023-05-21T04:00:08.264Z,6.60
2023-05-21T04:01:30.560Z,6.60
2023-05-21T04:02:52.988Z,5.90
2023-05-21T04:04:15.287Z,5.33
2023-05-21T04:05:37.717Z,6.40
2023-05-21T04:07:00.156Z,6.60
2023-05-21T04:08:22.352Z,6.40
2023-05-21T04:09:44.479Z,6.40
2023-05-21T04:11:06.569Z,6.00
2023-05-21T04:12:28.661Z,7.63
2023-05-21T04:13:51.607Z,6.80
2023-05-21T04:15:14.489Z,6.70
2023-05-21T04:16:38.631Z,6.30
2023-05-21T04:18:01.117Z,5.70
2023-05-21T04:19:23.323Z,5.80
2023-05-21T04:20:45.515Z,6.20
2023-05-21T04:22:07.886Z,5.87
2023-05-21T04:23:29.988Z,6.03
2023-05-21T04:24:52.852Z,5.83
2023-05-21T04:26:16.230Z,5.30
2023-05-21T04:27:38.712Z,5.37
2023-05-21T04:29:03.723Z,5.93
2023-05-21T04:30:25.965Z,5.70
2023-05-21T04:31:49.452Z,5.07
2023-05-21T04:33:11.684Z,6.13
2023-05-21T04:34:34.085Z,6.17
2023-05-21T04:35:56.209Z,5.67
2023-05-21T04:37:18.424Z,5.37
2023-05-21T04:38:41.821Z,5.67
2023-05-21T04:40:04.268Z,5.90
2023-05-21T04:41:26.572Z,5.60
2023-05-21T04:42:50.735Z,5.43
2023-05-21T04:44:14.919Z,4.53
2023-05-21T04:45:37.590Z,5.00
2023-05-21T04:47:00.564Z,5.53
2023-05-21T04:48:24.683Z,5.63
2023-05-21T04:49:47.125Z,5.93
2023-05-21T04:51:09.252Z,4.87
2023-05-21T04:52:31.706Z,5.17
2023-05-21T04:53:54.210Z,5.10
2023-05-21T04:55:19.067Z,5.30
2023-05-21T04:56:41.293Z,5.33
2023-05-21T04:58:03.454Z,5.17
2023-05-21T04:59:25.591Z,5.30
2023-05-21T05:00:50.937Z,4.30
2023-05-21T05:02:13.259Z,5.00
2023-05-21T05:03:36.460Z,5.00
2023-05-21T05:04:59.883Z,4.57
2023-05-21T05:06:22.298Z,5.40
2023-05-21T05:07:44.417Z,5.57
2023-05-21T05:09:06.550Z,5.03
2023-05-21T05:10:28.646Z,4.70
2023-05-21T05:11:51.216Z,5.33
2023-05-21T05:13:13.397Z,4.20
2023-05-21T05:14:36.064Z,5.00
2023-05-21T05:15:58.230Z,5.47
2023-05-21T05:17:20.418Z,5.17
2023-05-21T05:18:42.520Z,5.43
2023-05-21T05:20:05.474Z,5.30
2023-05-21T05:21:27.961Z,5.40
2023-05-21T05:22:50.089Z,5.17
2023-05-21T05:24:12.210Z,5.10
2023-05-21T05:25:35.781Z,4.57
2023-05-21T05:26:58.070Z,4.57
2023-05-21T05:28:20.189Z,5.47
2023-05-21T05:29:42.318Z,5.20
2023-05-21T05:31:04.602Z,4.23
2023-05-21T05:32:26.858Z,5.00
2023-05-21T05:33:49.276Z,5.47
2023-05-21T05:35:11.393Z,4.90
2023-05-21T05:36:33.710Z,4.97
2023-05-21T05:37:55.878Z,5.43
2023-05-21T05:39:18.011Z,5.10
2023-05-21T05:40:40.211Z,5.07
2023-05-21T05:42:03.212Z,4.57
2023-05-21T05:43:26.428Z,5.07
2023-05-21T05:44:48.545Z,5.20
2023-05-21T05:46:10.741Z,4.77
2023-05-21T05:47:32.932Z,4.90
2023-05-21T05:48:55.110Z,4.10
2023-05-21T05:50:17.311Z,4.73
2023-05-21T05:51:39.593Z,4.93
2023-05-21T05:53:01.772Z,4.50
2023-05-21T05:54:23.873Z,4.43
2023-05-21T05:55:45.964Z,4.40
2023-05-21T05:57:08.141Z,4.30
2023-05-21T05:58:30.864Z,4.07
2023-05-21T05:59:53.049Z,4.50
2023-05-21T06:01:15.254Z,4.33
2023-05-21T06:02:37.657Z,4.53
2023-05-21T06:04:00.012Z,4.30
2023-05-21T06:05:22.165Z,4.80
2023-05-21T06:06:44.326Z,4.97
2023-05-21T06:08:06.512Z,4.90
2023-05-21T06:09:28.916Z,4.50
2023-05-21T06:10:51.180Z,4.47
2023-05-21T06:12:15.950Z,4.70
2023-05-21T06:13:38.153Z,5.20
2023-05-21T06:15:00.868Z,4.40
2023-05-21T06:16:23.196Z,4.60
2023-05-21T06:17:45.501Z,5.10
2023-05-21T06:19:07.662Z,5.60
2023-05-21T06:20:30.364Z,5.53
2023-05-21T06:21:52.583Z,4.37
2023-05-21T06:23:14.811Z,5.00
2023-05-21T06:24:37.248Z,5.00
2023-05-21T06:25:59.439Z,5.00
2023-05-21T06:27:21.587Z,5.77
2023-05-21T06:28:43.729Z,5.63
2023-05-21T06:30:07.309Z,5.23
2023-05-21T06:31:29.570Z,5.17
2023-05-21T06:32:51.807Z,4.87
2023-05-21T06:34:14.117Z,5.60
2023-05-21T06:35:37.453Z,5.10
2023-05-21T06:36:59.916Z,5.57
2023-05-21T06:38:21.994Z,5.23
2023-05-21T06:39:44.194Z,4.87
2023-05-21T06:41:06.487Z,5.20
2023-05-21T06:42:28.622Z,5.10
2023-05-21T06:43:50.726Z,5.23
2023-05-21T06:45:12.905Z,5.17
2023-05-21T06:46:35.922Z,5.90
2023-05-21T06:47:58.107Z,5.50
2023-05-21T06:49:20.231Z,6.30
2023-05-21T06:50:42.579Z,5.50
2023-05-21T06:52:05.015Z,5.80
2023-05-21T06:53:27.571Z,5.63
2023-05-21T06:54:49.824Z,4.90
2023-05-21T06:56:12.972Z,5.53
2023-05-21T06:57:35.112Z,5.90
2023-05-21T06:58:57.341Z,5.30
2023-05-21T07:00:19.454Z,5.47
2023-05-21T07:01:44.856Z,5.20
2023-05-21T07:03:07.333Z,5.87
2023-05-21T07:04:29.511Z,5.87
2023-05-21T07:05:51.655Z,5.07
2023-05-21T07:07:13.792Z,5.23
2023-05-21T07:08:36.126Z,5.77
2023-05-21T07:09:58.221Z,5.90
2023-05-21T07:11:21.296Z,5.70
2023-05-21T07:12:43.447Z,7.17
2023-05-21T07:14:05.667Z,6.20
2023-05-21T07:15:27.791Z,5.40
2023-05-21T07:16:50.040Z,5.60
2023-05-21T07:18:13.221Z,6.63
2023-05-21T07:19:35.463Z,6.50
2023-05-21T07:20:57.544Z,6.03
2023-05-21T07:22:19.668Z,6.30
2023-05-21T07:23:42.096Z,6.17
2023-05-21T07:25:04.547Z,5.50
2023-05-21T07:26:26.618Z,6.73
2023-05-21T07:27:48.669Z,5.93
2023-05-21T07:29:10.814Z,6.50
2023-05-21T07:30:32.918Z,6.50
2023-05-21T07:31:55.069Z,7.10
2023-05-21T07:33:17.274Z,7.30
2023-05-21T07:34:39.445Z,6.80
2023-05-21T07:36:01.611Z,6.63
2023-05-21T07:37:23.755Z,6.60
2023-05-21T07:38:46.186Z,7.10
2023-05-21T07:40:09.009Z,7.23
2023-05-21T07:41:31.250Z,6.80
2023-05-21T07:42:53.445Z,7.10
2023-05-21T07:44:15.593Z,6.40
2023-05-21T07:45:38.067Z,6.90
2023-05-21T07:47:00.312Z,6.10
2023-05-21T07:48:22.525Z,6.47
2023-05-21T07:49:44.658Z,7.17
2023-05-21T07:51:06.802Z,6.50
2023-05-21T07:52:29.080Z,6.90
2023-05-21T07:53:52.323Z,6.40
2023-05-21T07:55:15.998Z,7.83
2023-05-21T07:56:38.643Z,6.90
2023-05-21T07:58:01.640Z,7.03
2023-05-21T07:59:24.515Z,7.93
2023-05-21T08:00:47.560Z,7.40
2023-05-21T08:02:09.642Z,7.37
2023-05-21T08:03:31.928Z,7.13
2023-05-21T08:04:55.099Z,7.20
2023-05-21T08:06:17.309Z,7.07
2023-05-21T08:07:39.860Z,7.63
2023-05-21T08:09:01.986Z,6.73
2023-05-21T08:10:24.064Z,7.00
2023-05-21T08:11:46.567Z,6.97
2023-05-21T08:13:08.702Z,7.17
2023-05-21T08:14:30.905Z,7.47
2023-05-21T08:15:53.683Z,7.20
2023-05-21T08:17:16.309Z,7.40
2023-05-21T08:18:38.449Z,7.00
2023-05-21T08:20:00.674Z,7.87
2023-05-21T08:21:23.079Z,7.70
2023-05-21T08:22:45.191Z,8.33
2023-05-21T08:24:07.515Z,6.83
2023-05-21T08:25:30.033Z,8.03
2023-05-21T08:26:52.115Z,7.73
2023-05-21T08:28:14.335Z,7.73
2023-05-21T08:29:36.566Z,7.23
2023-05-21T08:30:58.945Z,8.10
2023-05-21T08:32:21.150Z,7.70
2023-05-21T08:33:53.581Z,8.40
2023-05-21T08:35:16.221Z,7.57
2023-05-21T08:36:38.385Z,7.47
2023-05-21T08:38:00.704Z,7.10
2023-05-21T08:39:22.849Z,9.37
2023-05-21T08:40:47.715Z,8.27
2023-05-21T08:42:37.386Z,8.10
2023-05-21T08:44:02.140Z,8.87
2023-05-21T08:45:24.419Z,7.60
2023-05-21T08:46:50.829Z,8.03
2023-05-21T08:48:16.244Z,8.97
2023-05-21T08:49:38.515Z,8.10
2023-05-21T08:51:01.291Z,8.57
2023-05-21T08:52:24.063Z,8.87
2023-05-21T08:53:46.320Z,9.47
2023-05-21T08:55:09.587Z,8.57
2023-05-21T08:56:32.610Z,8.97
2023-05-21T08:57:55.361Z,10.90
2023-05-21T08:59:19.925Z,9.27
2023-05-21T09:00:42.009Z,8.60
2023-05-21T09:02:05.121Z,8.70
2023-05-21T09:03:29.275Z,8.60
2023-05-21T09:04:57.021Z,8.60
2023-05-21T09:06:19.658Z,8.97
2023-05-21T09:08:07.948Z,8.67
2023-05-21T09:09:46.408Z,8.30
2023-05-21T09:11:08.674Z,7.30
2023-05-21T09:12:31.702Z,8.53
2023-05-21T09:13:55.269Z,9.10
2023-05-21T09:15:19.524Z,8.80
2023-05-21T09:16:42.258Z,8.47
2023-05-21T09:18:04.621Z,9.60
2023-05-21T09:19:26.817Z,9.90
2023-05-21T09:20:49.359Z,9.70
2023-05-21T09:22:11.488Z,8.67
2023-05-21T09:23:33.608Z,8.20
2023-05-21T09:24:55.726Z,9.40
2023-05-21T09:26:17.887Z,9.37
2023-05-21T09:27:40.347Z,9.13
2023-05-21T09:29:02.530Z,8.83
2023-05-21T09:30:27.618Z,10.17
2023-05-21T09:31:52.126Z,8.83
2023-05-21T09:33:26.081Z,8.80
2023-05-21T09:34:48.545Z,9.13
2023-05-21T09:36:11.740Z,8.97
2023-05-21T09:37:38.295Z,10.10
2023-05-21T09:39:00.579Z,8.93
2023-05-21T09:40:24.519Z,9.07
2023-05-21T09:41:46.701Z,8.93
2023-05-21T09:43:08.757Z,10.27
2023-05-21T09:44:30.909Z,8.80
2023-05-21T09:45:55.459Z,10.33
2023-05-21T09:47:20.878Z,9.90
2023-05-21T09:48:43.646Z,9.93
2023-05-21T09:50:06.533Z,9.30
2023-05-21T09:51:28.673Z,10.13
2023-05-21T09:52:52.905Z,10.67
2023-05-21T09:54:15.108Z,9.80
2023-05-21T09:55:37.202Z,9.67
2023-05-21T09:57:02.673Z,10.30
2023-05-21T09:58:24.797Z,9.40
2023-05-21T09:59:50.563Z,8.43
2023-05-21T10:01:13.362Z,9.63
2023-05-21T10:02:38.546Z,9.10
2023-05-21T10:04:04.283Z,8.77
2023-05-21T10:05:28.751Z,11.10
2023-05-21T10:06:52.399Z,9.37
2023-05-21T10:08:16.477Z,9.20
2023-05-21T10:09:39.250Z,10.27
2023-05-21T10:11:02.731Z,9.70
2023-05-21T10:12:25.925Z,10.10
2023-05-21T10:13:54.198Z,9.40
2023-05-21T10:15:20.837Z,9.50
2023-05-21T10:16:44.353Z,8.97
2023-05-21T10:18:08.415Z,9.80
2023-05-21T10:19:32.772Z,10.27
2023-05-21T10:20:56.521Z,9.60
2023-05-21T10:22:18.721Z,10.03
2023-05-21T10:23:42.723Z,9.73
2023-05-21T10:25:06.892Z,9.27
2023-05-21T10:26:30.015Z,9.00
2023-05-21T10:27:55.646Z,9.13
2023-05-21T10:29:19.750Z,10.50
2023-05-21T10:30:42.661Z,9.20
2023-05-21T10:32:06.175Z,9.33
2023-05-21T10:33:29.643Z,9.80
2023-05-21T10:34:58.610Z,10.77
2023-05-21T10:36:27.798Z,10.43
2023-05-21T10:37:52.164Z,10.13
2023-05-21T10:39:16.861Z,10.53
2023-05-21T10:40:39.279Z,9.50
2023-05-21T10:42:18.925Z,10.77
2023-05-21T10:43:44.063Z,11.07
2023-05-21T10:45:24.702Z,10.60
2023-05-21T10:47:07.047Z,9.07
2023-05-21T10:48:35.030Z,11.17
2023-05-21T10:50:06.060Z,10.40
2023-05-21T10:51:56.307Z,10.27
2023-05-21T10:53:55.615Z,10.90
2023-05-21T10:55:36.429Z,12.30
2023-05-21T10:57:04.642Z,10.63
2023-05-21T10:58:36.423Z,11.30
2023-05-21T10:59:59.056Z,11.33
2023-05-21T11:01:22.032Z,10.87
2023-05-21T11:02:45.721Z,10.23
2023-05-21T11:04:08.242Z,11.43
2023-05-21T11:05:51.456Z,10.53
2023-05-21T11:07:13.734Z,10.70
2023-05-21T11:08:37.079Z,12.00
2023-05-21T11:10:34.369Z,9.60
2023-05-21T11:12:00.983Z,9.90
2023-05-21T11:13:23.608Z,11.13
2023-05-21T11:14:58.438Z,10.30
2023-05-21T11:16:25.852Z,10.53
2023-05-21T11:17:50.497Z,11.70
2023-05-21T11:19:19.055Z,12.00
2023-05-21T11:20:51.098Z,10.17
2023-05-21T11:22:26.367Z,11.03
2023-05-21T11:23:58.191Z,10.20
2023-05-21T11:25:20.814Z,10.77
2023-05-21T11:26:49.091Z,11.17
2023-05-21T11:28:11.217Z,12.10
2023-05-21T11:29:41.804Z,10.43
2023-05-21T11:31:26.860Z,11.93
2023-05-21T11:33:07.995Z,10.90
2023-05-21T11:34:46.159Z,11.17
2023-05-21T11:36:13.160Z,10.83
2023-05-21T11:37:35.947Z,10.47
2023-05-21T11:39:17.919Z,11.30
2023-05-21T11:40:51.651Z,9.67
2023-05-21T11:42:27.435Z,11.27
2023-05-21T11:44:01.138Z,11.30
2023-05-21T11:45:28.126Z,11.20
2023-05-21T11:46:52.437Z,10.70
2023-05-21T11:48:14.742Z,10.77
2023-05-21T11:49:37.503Z,10.87
2023-05-21T11:51:01.114Z,10.77
2023-05-21T11:52:23.715Z,10.90
2023-05-21T11:53:48.863Z,10.27
2023-05-21T11:55:11.444Z,11.10
2023-05-21T11:56:33.967Z,10.43
2023-05-21T11:57:58.341Z,10.53
2023-05-21T11:59:20.710Z,11.73
2023-05-21T12:00:42.930Z,11.30
2023-05-21T12:02:05.487Z,10.57
2023-05-21T12:03:30.423Z,9.93
2023-05-21T12:04:52.853Z,11.40
2023-05-21T12:06:17.406Z,10.53
2023-05-21T12:07:39.662Z,11.90
2023-05-21T12:09:01.947Z,11.50
2023-05-21T12:10:24.497Z,10.90
2023-05-21T12:11:46.730Z,10.87
2023-05-21T12:13:09.903Z,11.80
2023-05-21T12:14:32.229Z,11.43
2023-05-21T12:15:54.829Z,11.20
2023-05-21T12:17:25.017Z,11.10
2023-05-21T12:18:47.155Z,11.03
2023-05-21T12:20:10.775Z,11.93
2023-05-21T12:21:33.622Z,10.53
2023-05-21T12:22:58.086Z,10.83
2023-05-21T12:24:20.180Z,10.73
2023-05-21T12:25:42.278Z,12.10
2023-05-21T12:27:09.662Z,10.70
2023-05-21T12:28:32.151Z,10.57
2023-05-21T12:29:54.901Z,10.80
2023-05-21T12:31:17.113Z,10.80
2023-05-21T12:32:44.263Z,10.07
2023-05-21T12:34:08.160Z,11.00
2023-05-21T12:35:31.680Z,10.07
2023-05-21T12:36:53.830Z,9.80
2023-05-21T12:38:16.426Z,10.70
2023-05-21T12:39:49.394Z,10.20
2023-05-21T12:41:11.485Z,10.20
2023-05-21T12:42:36.731Z,9.93
2023-05-21T12:43:58.973Z,11.37
2023-05-21T12:45:22.693Z,9.63
2023-05-21T12:46:45.102Z,9.60
2023-05-21T12:48:07.600Z,10.10
2023-05-21T12:49:59.347Z,10.67
2023-05-21T12:51:21.488Z,10.40
2023-05-21T12:52:44.516Z,10.63
2023-05-21T12:54:13.114Z,10.53
2023-05-21T12:55:36.001Z,10.07
2023-05-21T12:56:58.125Z,9.67
2023-05-21T12:58:22.383Z,9.67
2023-05-21T12:59:49.578Z,10.00
2023-05-21T13:01:12.523Z,9.77
2023-05-21T13:02:42.121Z,10.53
2023-05-21T13:04:05.399Z,10.60
2023-05-21T13:05:27.642Z,10.40
2023-05-21T13:06:49.786Z,11.60
2023-05-21T13:08:14.115Z,12.97
2023-05-21T13:09:36.434Z,10.80
2023-05-21T13:10:58.517Z,10.67
2023-05-21T13:12:26.545Z,11.00
2023-05-21T13:13:48.646Z,9.70
2023-05-21T13:15:11.091Z,10.03
2023-05-21T13:16:33.769Z,10.00
2023-05-21T13:17:59.004Z,10.10
2023-05-21T13:19:21.997Z,9.90
2023-05-21T13:20:44.056Z,9.93
2023-05-21T13:22:07.149Z,11.30
2023-05-21T13:23:29.243Z,10.47
2023-05-21T13:24:51.411Z,10.17
2023-05-21T13:26:13.474Z,10.40
2023-05-21T13:27:35.592Z,9.60
2023-05-21T13:28:57.774Z,10.80
2023-05-21T13:30:21.429Z,9.53
2023-05-21T13:31:44.292Z,9.57
2023-05-21T13:33:06.721Z,15.40
2023-05-21T13:34:28.868Z,9.30
2023-05-21T13:35:51.808Z,10.50
2023-05-21T13:37:14.413Z,9.50
2023-05-21T13:38:36.529Z,9.50
2023-05-21T13:39:58.572Z,9.10
2023-05-21T13:41:21.251Z,10.07
2023-05-21T13:42:48.353Z,10.50
2023-05-21T13:44:10.499Z,10.03
2023-05-21T13:45:33.814Z,10.30
2023-05-21T13:46:56.002Z,9.67
2023-05-21T13:48:18.140Z,10.87
2023-05-21T13:49:40.693Z,8.97
2023-05-21T13:51:02.818Z,11.07
2023-05-21T13:52:25.055Z,10.37
2023-05-21T13:53:47.488Z,9.90
2023-05-21T13:55:10.614Z,10.70
2023-05-21T13:56:33.815Z,9.97
2023-05-21T13:57:55.961Z,9.90
2023-05-21T13:59:18.230Z,10.17
2023-05-21T14:00:41.292Z,10.23
2023-05-21T14:02:03.988Z,10.50
2023-05-21T14:03:27.537Z,10.77
2023-05-21T14:04:49.736Z,10.70
2023-05-21T14:06:11.973Z,9.97
2023-05-21T14:07:34.210Z,10.00
2023-05-21T14:08:56.341Z,10.73
2023-05-21T14:10:18.707Z,10.60
2023-05-21T14:11:41.434Z,9.83
2023-05-21T14:13:11.968Z,10.00
2023-05-21T14:14:41.397Z,10.00
2023-05-21T14:16:03.586Z,10.33
2023-05-21T14:17:25.792Z,10.10
2023-05-21T14:18:48.020Z,9.67
2023-05-21T14:20:10.855Z,9.30
2023-05-21T14:21:32.970Z,9.47
2023-05-21T14:22:55.085Z,9.63
2023-05-21T14:24:17.180Z,10.03
2023-05-21T14:25:39.237Z,10.17
2023-05-21T14:27:01.378Z,10.07
2023-05-21T14:28:23.534Z,9.20
2023-05-21T14:29:45.752Z,9.30
2023-05-21T14:31:08.099Z,10.20
2023-05-21T14:32:30.718Z,9.93
2023-05-21T14:33:52.826Z,9.73
2023-05-21T14:35:14.872Z,9.80
2023-05-21T14:36:37.070Z,9.80
2023-05-21T14:37:59.154Z,9.30
2023-05-21T14:39:21.275Z,9.80
2023-05-21T14:40:43.377Z,9.50
2023-05-21T14:42:05.730Z,9.10
2023-05-21T14:43:27.805Z,8.60
2023-05-21T14:44:49.837Z,10.53
2023-05-21T14:46:12.024Z,10.20
2023-05-21T14:47:34.243Z,10.27
2023-05-21T14:48:59.197Z,9.80
2023-05-21T14:50:21.335Z,9.83
2023-05-21T14:51:44.944Z,10.97
2023-05-21T14:53:11.097Z,9.80
2023-05-21T14:54:33.275Z,10.50
2023-05-21T14:55:55.359Z,9.90
2023-05-21T14:57:17.444Z,10.63
2023-05-21T14:58:39.661Z,9.57
2023-05-21T15:00:01.878Z,9.13
2023-05-21T15:01:24.110Z,9.70
2023-05-21T15:02:46.431Z,9.50
2023-05-21T15:04:08.678Z,9.10
2023-05-21T15:05:31.395Z,10.43
2023-05-21T15:06:53.531Z,9.10
2023-05-21T15:08:15.726Z,8.80
2023-05-21T15:09:37.884Z,9.30
2023-05-21T15:10:59.994Z,9.90
2023-05-21T15:12:22.196Z,8.67
2023-05-21T15:13:44.331Z,8.93
2023-05-21T15:15:07.871Z,9.00
2023-05-21T15:16:30.025Z,9.03
2023-05-21T15:17:52.324Z,9.30
2023-05-21T15:19:14.520Z,10.37
2023-05-21T15:20:36.710Z,8.63
2023-05-21T15:21:58.888Z,8.90
2023-05-21T15:23:21.053Z,9.53
2023-05-21T15:24:44.575Z,9.10
2023-05-21T15:26:06.768Z,8.40
2023-05-21T15:27:29.152Z,8.83
2023-05-21T15:28:51.283Z,8.43
2023-05-21T15:30:13.471Z,8.17
2023-05-21T15:31:35.617Z,9.13
2023-05-21T15:32:57.887Z,8.30
2023-05-21T15:34:19.999Z,8.00
2023-05-21T15:35:42.749Z,7.80
2023-05-21T15:37:05.572Z,7.60
2023-05-21T15:38:27.667Z,6.70
2023-05-21T15:39:50.340Z,8.03
2023-05-21T15:41:12.610Z,7.70
2023-05-21T15:42:34.754Z,7.30
2023-05-21T15:43:59.614Z,7.37
2023-05-21T15:45:21.856Z,6.73
2023-05-21T15:46:44.081Z,6.80
2023-05-21T15:48:06.813Z,6.70
2023-05-21T15:49:29.005Z,6.80
2023-05-21T15:50:51.171Z,6.70
2023-05-21T15:52:13.318Z,6.50
2023-05-21T15:53:35.445Z,6.93
2023-05-21T15:54:57.732Z,6.50
2023-05-21T15:56:19.946Z,7.73
2023-05-21T15:57:42.149Z,6.53
2023-05-21T15:59:04.302Z,6.60
2023-05-21T16:00:26.572Z,6.50
2023-05-21T16:01:48.795Z,7.20
2023-05-21T16:03:12.584Z,7.03
2023-05-21T16:04:34.920Z,7.07
2023-05-21T16:05:57.123Z,6.70
2023-05-21T16:07:19.413Z,6.77
2023-05-21T16:08:41.673Z,7.60
2023-05-21T16:10:03.965Z,7.20
2023-05-21T16:11:27.133Z,6.70
2023-05-21T16:12:49.284Z,8.23
2023-05-21T16:14:12.392Z,7.50
2023-05-21T16:15:34.736Z,7.30
2023-05-21T16:16:56.987Z,8.33
2023-05-21T16:18:19.102Z,8.20
2023-05-21T16:19:41.323Z,7.57
2023-05-21T16:21:03.655Z,7.30
2023-05-21T16:22:26.173Z,7.47
2023-05-21T16:23:48.251Z,7.33
2023-05-21T16:25:10.440Z,7.57
2023-05-21T16:26:32.586Z,6.47
2023-05-21T16:27:54.732Z,7.33
2023-05-21T16:29:16.864Z,7.50
2023-05-21T16:30:39.023Z,7.97
2023-05-21T16:32:01.196Z,8.00
2023-05-21T16:33:23.390Z,6.83
2023-05-21T16:34:45.568Z,7.37
2023-05-21T16:36:07.727Z,7.60
2023-05-21T16:37:29.879Z,7.90
2023-05-21T16:38:52.443Z,7.20
2023-05-21T16:40:14.634Z,7.10
2023-05-21T16:41:36.845Z,6.90
2023-05-21T16:43:01.897Z,7.20
2023-05-21T16:44:24.365Z,6.83
2023-05-21T16:45:47.141Z,7.07
2023-05-21T16:47:09.312Z,7.90
2023-05-21T16:48:32.742Z,7.37
2023-05-21T16:49:55.849Z,7.20
2023-05-21T16:51:18.229Z,7.07
2023-05-21T16:52:40.373Z,7.40
2023-05-21T16:54:04.246Z,7.00
2023-05-21T16:55:26.348Z,7.20
2023-05-21T16:56:48.483Z,6.60
2023-05-21T16:58:10.963Z,6.73
2023-05-21T16:59:33.114Z,6.10
2023-05-21T17:00:55.359Z,7.13
2023-05-21T17:02:17.567Z,6.87
2023-05-21T17:03:42.445Z,6.03
2023-05-21T17:05:05.929Z,6.93
2023-05-21T17:06:28.080Z,6.53
2023-05-21T17:07:50.259Z,5.60
2023-05-21T17:09:12.379Z,5.90
2023-05-21T17:10:34.509Z,6.67
2023-05-21T17:11:56.824Z,6.30
2023-05-21T17:13:22.596Z,6.03
2023-05-21T17:14:45.475Z,6.63
2023-05-21T17:16:07.659Z,4.90
2023-05-21T17:17:30.382Z,5.10
2023-05-21T17:18:52.709Z,5.47
2023-05-21T17:20:15.135Z,5.73
2023-05-21T17:21:37.408Z,5.50
2023-05-21T17:22:59.614Z,5.27
2023-05-21T17:24:21.879Z,4.90
2023-05-21T17:25:44.132Z,4.90
2023-05-21T17:27:06.581Z,5.00
2023-05-21T17:28:28.964Z,4.83
2023-05-21T17:29:51.133Z,5.10
2023-05-21T17:31:14.206Z,5.17
2023-05-21T17:32:36.416Z,5.23
2023-05-21T17:33:59.111Z,4.97
2023-05-21T17:35:21.417Z,4.50
2023-05-21T17:36:43.626Z,5.13
2023-05-21T17:38:05.846Z,4.90
2023-05-21T17:39:28.122Z,5.30
2023-05-21T17:40:50.675Z,5.03
2023-05-21T17:42:12.791Z,5.90
2023-05-21T17:43:34.930Z,4.70
2023-05-21T17:44:57.064Z,4.80
2023-05-21T17:46:19.309Z,4.97
2023-05-21T17:47:41.433Z,5.10
2023-05-21T17:49:03.785Z,4.63
2023-05-21T17:50:26.357Z,4.90
2023-05-21T17:51:48.898Z,5.30
2023-05-21T17:53:11.094Z,5.20
2023-05-21T17:54:34.659Z,4.70
2023-05-21T17:55:56.877Z,5.33
2023-05-21T17:57:20.222Z,5.00
2023-05-21T17:58:42.394Z,5.53
2023-05-21T18:00:06.702Z,4.70
2023-05-21T18:01:29.218Z,5.00
2023-05-21T18:02:51.481Z,4.43
2023-05-21T18:04:13.793Z,4.40
2023-05-21T18:05:36.604Z,5.40
2023-05-21T18:06:58.872Z,5.00
2023-05-21T18:08:21.085Z,4.90
2023-05-21T18:09:43.238Z,4.80
2023-05-21T18:11:05.469Z,4.77
2023-05-21T18:12:27.820Z,4.70
2023-05-21T18:13:50.399Z,4.77
2023-05-21T18:15:14.125Z,5.20
2023-05-21T18:16:36.447Z,4.80
2023-05-21T18:17:58.687Z,5.00
2023-05-21T18:19:21.054Z,4.70
2023-05-21T18:20:46.436Z,5.37
2023-05-21T18:22:08.637Z,4.60
2023-05-21T18:23:31.359Z,4.90
2023-05-21T18:24:53.644Z,4.53
2023-05-21T18:26:16.001Z,4.73
2023-05-21T18:27:38.117Z,5.27